createdAt,value
2018-03-20T00:00:18.756Z,16.67
2018-03-20T00:02:44.952Z,19.20
2018-03-20T00:05:11.104Z,18.37
2018-03-20T00:07:37.262Z,20.70
2018-03-20T00:10:03.459Z,20.97
2018-03-20T00:12:29.594Z,21.07
2018-03-20T00:14:55.750Z,18.30
2018-03-20T00:17:22.672Z,19.70
2018-03-20T00:19:48.824Z,20.13
2018-03-20T00:22:16.511Z,23.70
2018-03-20T00:24:43.430Z,18.53
2018-03-20T00:27:09.580Z,19.43
2018-03-20T00:29:35.722Z,17.97
2018-03-20T00:32:02.680Z,19.50
2018-03-20T00:34:29.577Z,21.10
2018-03-20T00:36:55.772Z,21.80
2018-03-20T00:39:22.690Z,20.10
2018-03-20T00:41:50.347Z,23.10
2018-03-20T00:44:16.496Z,20.93
2018-03-20T00:46:42.698Z,23.33
2018-03-20T00:49:08.862Z,20.20
2018-03-20T00:51:35.044Z,21.53
2018-03-20T00:54:01.259Z,20.47
2018-03-20T00:56:27.435Z,26.03
2018-03-20T00:58:53.679Z,25.63
2018-03-20T01:01:19.822Z,25.07
2018-03-20T01:03:45.970Z,22.07
2018-03-20T01:06:12.885Z,23.67
2018-03-20T01:08:39.039Z,22.83
2018-03-20T01:11:05.265Z,26.40
2018-03-20T01:13:31.407Z,22.57
2018-03-20T01:15:58.304Z,19.80
2018-03-20T01:18:24.487Z,17.77
2018-03-20T01:20:50.692Z,19.97
2018-03-20T01:23:16.890Z,16.47
2018-03-20T01:25:43.062Z,18.17
2018-03-20T01:28:09.202Z,16.03
2018-03-20T01:30:36.844Z,18.20
2018-03-20T01:33:02.989Z,16.60
2018-03-20T01:35:29.160Z,14.70
2018-03-20T01:37:56.311Z,15.33
2018-03-20T01:40:23.203Z,13.73
2018-03-20T01:42:49.351Z,13.47
2018-03-20T01:45:15.531Z,11.73
2018-03-20T01:47:42.450Z,12.40
2018-03-20T01:50:09.327Z,17.70
2018-03-20T01:52:36.254Z,10.43
2018-03-20T01:55:02.402Z,12.90
2018-03-20T01:57:29.304Z,16.13
2018-03-20T01:59:55.474Z,9.10
2018-03-20T02:02:21.628Z,14.73
2018-03-20T02:04:47.791Z,10.53
2018-03-20T02:07:14.191Z,9.20
2018-03-20T02:09:41.114Z,11.50
2018-03-20T02:12:07.230Z,7.70
2018-03-20T02:14:33.435Z,9.43
2018-03-20T02:16:59.582Z,8.60
2018-03-20T02:19:25.723Z,7.80
2018-03-20T02:21:51.908Z,8.13
2018-03-20T02:24:18.038Z,7.10
2018-03-20T02:26:44.216Z,5.23
2018-03-20T02:29:10.368Z,6.67
2018-03-20T02:31:37.315Z,5.93
2018-03-20T02:34:03.459Z,6.40
2018-03-20T02:36:29.613Z,4.67
2018-03-20T02:38:55.804Z,7.00
2018-03-20T02:41:21.959Z,5.33
2018-03-20T02:43:48.875Z,8.57
2018-03-20T02:46:20.814Z,5.17
2018-03-20T02:48:46.978Z,5.43
2018-03-20T02:51:13.195Z,5.67
2018-03-20T02:53:39.360Z,4.40
2018-03-20T02:56:06.275Z,4.47
2018-03-20T02:58:32.455Z,5.20
2018-03-20T03:00:59.372Z,4.27
2018-03-20T03:03:25.532Z,6.10
2018-03-20T03:05:52.451Z,6.17
2018-03-20T03:08:18.594Z,6.83
2018-03-20T03:10:44.780Z,6.10
2018-03-20T03:13:10.990Z,5.93
2018-03-20T03:15:37.869Z,5.23
2018-03-20T03:18:04.076Z,2.90
2018-03-20T03:20:30.975Z,3.30
2018-03-20T03:22:57.151Z,3.73
2018-03-20T03:25:24.064Z,3.10
2018-03-20T03:27:50.244Z,3.50
2018-03-20T03:30:16.392Z,3.30
2018-03-20T03:32:42.577Z,3.60
2018-03-20T03:35:09.499Z,6.47
2018-03-20T03:37:35.645Z,2.60
2018-03-20T03:40:01.843Z,3.25
2018-03-20T03:42:27.995Z,4.97
2018-03-20T03:44:54.173Z,4.30
2018-03-20T03:47:21.094Z,2.83
2018-03-20T03:49:47.256Z,4.57
2018-03-20T03:52:14.157Z,2.73
2018-03-20T03:54:40.350Z,3.10
2018-03-20T03:57:07.244Z,2.60
2018-03-20T03:59:33.386Z,3.53
2018-03-20T04:01:59.566Z,3.87
2018-03-20T04:04:25.759Z,3.47
2018-03-20T04:06:52.645Z,5.83
2018-03-20T04:09:18.792Z,2.97
2018-03-20T04:11:44.995Z,2.67
2018-03-20T04:14:11.871Z,5.90
2018-03-20T04:16:38.024Z,3.97
2018-03-20T04:19:04.934Z,2.37
2018-03-20T04:21:31.838Z,2.20
2018-03-20T04:23:58.051Z,5.93
2018-03-20T04:26:24.195Z,2.87
2018-03-20T04:28:50.349Z,4.22
2018-03-20T04:31:18.031Z,2.53
2018-03-20T04:33:44.927Z,2.67
2018-03-20T04:36:11.095Z,3.12
2018-03-20T04:38:38.022Z,1.87
2018-03-20T04:41:04.211Z,4.43
2018-03-20T04:43:31.179Z,3.03
2018-03-20T04:45:57.335Z,2.03
2018-03-20T04:48:23.482Z,2.37
2018-03-20T04:50:49.655Z,3.57
2018-03-20T04:53:16.544Z,2.00
2018-03-20T04:55:42.732Z,3.90
2018-03-20T04:58:09.624Z,3.70
2018-03-20T05:00:35.796Z,5.82
2018-03-20T05:03:01.951Z,3.47
2018-03-20T05:05:28.131Z,5.12
2018-03-20T05:07:54.288Z,5.25
2018-03-20T05:10:20.464Z,4.00
2018-03-20T05:12:46.650Z,3.83
2018-03-20T05:15:13.599Z,5.07
2018-03-20T05:17:40.539Z,3.17
2018-03-20T05:23:28.175Z,3.67
2018-03-20T05:25:54.382Z,3.55
2018-03-20T05:28:20.572Z,6.80
2018-03-20T05:30:46.762Z,4.53
2018-03-20T05:33:12.980Z,2.15
2018-03-20T05:35:39.171Z,3.67
2018-03-20T05:38:05.368Z,3.33
2018-03-20T05:40:31.532Z,4.20
2018-03-20T05:42:57.753Z,5.20
2018-03-20T05:45:24.712Z,7.07
2018-03-20T05:51:08.227Z,8.75
2018-03-20T05:53:34.402Z,3.70
2018-03-20T05:56:00.564Z,5.68
2018-03-20T05:58:26.765Z,2.50
2018-03-20T06:00:52.924Z,3.47
2018-03-20T06:03:19.090Z,5.33
2018-03-20T06:05:46.000Z,5.07
2018-03-20T06:08:12.169Z,2.97
2018-03-20T06:10:38.372Z,2.73
2018-03-20T06:13:04.527Z,3.47
2018-03-20T06:15:30.725Z,5.77
2018-03-20T06:17:56.868Z,1.73
2018-03-20T06:20:23.022Z,4.30
2018-03-20T06:22:49.215Z,1.57
2018-03-20T06:25:15.374Z,2.43
2018-03-20T06:27:41.531Z,1.67
2018-03-20T06:30:08.484Z,1.30
2018-03-20T06:32:35.382Z,3.23
2018-03-20T06:35:01.540Z,6.33
2018-03-20T06:37:27.706Z,1.43
2018-03-20T06:39:54.583Z,1.37
2018-03-20T06:42:20.795Z,2.63
2018-03-20T06:44:46.960Z,2.97
2018-03-20T06:47:13.143Z,4.33
2018-03-20T06:49:40.075Z,2.97
2018-03-20T06:52:06.212Z,3.50
2018-03-20T06:54:33.098Z,3.43
2018-03-20T06:56:59.314Z,2.87
2018-03-20T06:59:26.260Z,2.80
2018-03-20T07:01:52.401Z,1.40
2018-03-20T07:04:18.647Z,4.17
2018-03-20T07:06:44.800Z,2.23
2018-03-20T07:09:10.974Z,3.17
2018-03-20T07:11:37.148Z,4.43
2018-03-20T07:14:03.331Z,1.70
2018-03-20T07:16:29.487Z,0.70
2018-03-20T07:18:56.395Z,1.93
2018-03-20T07:21:22.562Z,1.47
2018-03-20T07:23:49.476Z,2.50
2018-03-20T07:26:15.683Z,3.90
2018-03-20T07:28:41.845Z,3.20
2018-03-20T07:31:08.150Z,2.23
2018-03-20T07:33:34.326Z,0.80
2018-03-20T07:36:01.208Z,3.23
2018-03-20T07:38:28.350Z,3.07
2018-03-20T07:40:55.253Z,4.23
2018-03-20T07:43:21.391Z,1.83
2018-03-20T07:45:47.603Z,1.60
2018-03-20T07:48:13.754Z,2.43
2018-03-20T07:50:39.914Z,1.30
2018-03-20T07:53:06.095Z,1.33
2018-03-20T07:55:32.254Z,2.07
2018-03-20T07:57:58.436Z,3.13
2018-03-20T08:00:25.327Z,1.30
2018-03-20T08:02:51.494Z,5.70
2018-03-20T08:05:17.723Z,2.97
2018-03-20T08:07:43.886Z,2.80
2018-03-20T08:10:10.769Z,2.23
2018-03-20T08:12:36.944Z,3.07
2018-03-20T08:15:03.187Z,7.60
2018-03-20T08:17:30.098Z,3.63
2018-03-20T08:19:56.271Z,3.33
2018-03-20T08:22:23.204Z,1.63
2018-03-20T08:24:49.344Z,5.03
2018-03-20T08:27:16.217Z,1.17
2018-03-20T08:29:42.383Z,1.40
2018-03-20T08:32:08.530Z,3.03
2018-03-20T08:34:34.716Z,2.20
2018-03-20T08:37:00.858Z,0.50
2018-03-20T08:39:27.022Z,1.93
2018-03-20T08:41:53.195Z,2.87
2018-03-20T08:44:20.149Z,2.27
2018-03-20T08:46:46.303Z,2.43
2018-03-20T08:49:12.483Z,4.03
2018-03-20T08:51:38.655Z,1.63
2018-03-20T08:54:04.812Z,4.93
2018-03-20T08:56:31.012Z,2.90
2018-03-20T08:58:57.973Z,1.30
2018-03-20T09:01:24.120Z,2.50
2018-03-20T09:03:50.283Z,2.13
2018-03-20T09:06:16.566Z,1.43
2018-03-20T09:08:43.422Z,0.67
2018-03-20T09:11:09.611Z,2.47
2018-03-20T09:13:35.754Z,1.27
2018-03-20T09:16:01.888Z,2.13
2018-03-20T09:18:28.795Z,2.07
2018-03-20T09:20:54.942Z,0.97
2018-03-20T09:23:21.119Z,2.87
2018-03-20T09:25:47.254Z,2.97
2018-03-20T09:28:13.426Z,2.23
2018-03-20T09:30:39.582Z,2.00
2018-03-20T09:33:05.760Z,2.30
2018-03-20T09:35:31.941Z,1.80
2018-03-20T09:37:58.046Z,1.53
2018-03-20T09:40:24.208Z,2.83
2018-03-20T09:42:50.351Z,1.60
2018-03-20T09:45:16.532Z,2.17
2018-03-20T09:47:42.730Z,2.83
2018-03-20T09:50:08.932Z,2.10
2018-03-20T09:52:35.078Z,1.10
2018-03-20T09:55:01.227Z,1.20
2018-03-20T09:57:28.155Z,0.80
2018-03-20T09:59:54.319Z,1.27
2018-03-20T10:02:20.510Z,1.80
2018-03-20T10:04:46.650Z,2.93
2018-03-20T10:07:12.794Z,2.47
2018-03-20T10:09:38.968Z,1.60
2018-03-20T10:12:05.154Z,0.50
2018-03-20T10:14:31.303Z,0.40
2018-03-20T10:16:58.195Z,4.23
2018-03-20T10:19:24.401Z,0.70
2018-03-20T10:21:50.540Z,1.90
2018-03-20T10:24:16.751Z,2.30
2018-03-20T10:26:43.645Z,0.60
2018-03-20T10:29:09.804Z,1.00
2018-03-20T10:31:35.989Z,2.23
2018-03-20T10:34:02.146Z,0.60
2018-03-20T10:36:28.328Z,1.33
2018-03-20T10:38:54.531Z,1.87
2018-03-20T10:41:20.700Z,1.97
2018-03-20T10:43:46.853Z,0.80
2018-03-20T10:46:20.010Z,2.10
2018-03-20T10:48:46.902Z,0.87
2018-03-20T10:51:13.038Z,2.80
2018-03-20T10:53:39.245Z,1.63
2018-03-20T10:56:05.415Z,2.00
2018-03-20T10:58:31.567Z,2.03
2018-03-20T11:01:03.984Z,1.17
2018-03-20T11:03:30.148Z,2.53
2018-03-20T11:05:56.339Z,2.13
2018-03-20T11:08:22.524Z,0.53
2018-03-20T11:10:48.692Z,1.00
2018-03-20T11:13:15.639Z,2.53
2018-03-20T11:15:42.523Z,0.90
2018-03-20T11:18:08.695Z,1.93
2018-03-20T11:20:34.910Z,1.07
2018-03-20T11:23:01.056Z,1.70
2018-03-20T11:25:27.242Z,2.50
2018-03-20T11:27:53.436Z,3.27
2018-03-20T11:30:20.319Z,2.17
2018-03-20T11:32:46.455Z,0.53
2018-03-20T11:35:12.686Z,0.30
2018-03-20T11:37:39.567Z,0.50
2018-03-20T11:40:05.699Z,0.60
2018-03-20T11:42:31.896Z,1.50
2018-03-20T11:44:58.840Z,1.70
2018-03-20T11:47:25.018Z,1.50
2018-03-20T11:49:51.192Z,1.03
2018-03-20T11:52:18.072Z,0.93
2018-03-20T11:54:44.488Z,0.77
2018-03-20T11:57:10.644Z,0.43
2018-03-20T11:59:36.820Z,1.80
2018-03-20T12:02:03.000Z,1.53
2018-03-20T12:04:29.165Z,1.43
2018-03-20T12:06:55.338Z,0.70
2018-03-20T12:09:48.805Z,0.30
2018-03-20T12:12:15.713Z,0.40
2018-03-20T12:14:41.911Z,0.50
2018-03-20T12:17:08.102Z,2.50
2018-03-20T12:19:34.343Z,0.70
2018-03-20T12:22:01.219Z,0.60
2018-03-20T12:24:27.385Z,0.97
2018-03-20T12:26:53.550Z,0.60
2018-03-20T12:29:19.723Z,2.20
2018-03-20T12:31:45.883Z,0.47
2018-03-20T12:34:12.066Z,0.20
2018-03-20T12:36:38.959Z,0.77
2018-03-20T12:39:05.094Z,0.40
2018-03-20T12:41:31.277Z,0.93
2018-03-20T12:43:58.223Z,1.20
2018-03-20T12:46:25.116Z,1.90
2018-03-20T12:48:51.251Z,0.37
2018-03-20T12:51:17.488Z,0.40
2018-03-20T12:53:43.626Z,1.00
2018-03-20T12:56:09.764Z,1.83
2018-03-20T12:58:35.952Z,1.30
2018-03-20T13:01:02.159Z,0.77
2018-03-20T13:03:29.035Z,2.10
2018-03-20T13:05:55.174Z,0.50
2018-03-20T13:08:21.348Z,0.33
2018-03-20T13:10:47.524Z,3.00
2018-03-20T13:13:13.716Z,0.37
2018-03-20T13:15:39.824Z,0.73
2018-03-20T13:18:05.995Z,0.33
2018-03-20T13:20:32.959Z,0.50
2018-03-20T13:22:59.860Z,1.57
2018-03-20T13:25:26.006Z,0.90
2018-03-20T13:27:52.179Z,2.17
2018-03-20T13:30:18.344Z,0.10
2018-03-20T13:32:44.475Z,1.27
2018-03-20T13:35:10.647Z,2.97
2018-03-20T13:37:36.834Z,1.00
2018-03-20T13:40:02.974Z,0.90
2018-03-20T13:42:29.115Z,1.73
2018-03-20T13:44:55.287Z,0.43
2018-03-20T13:47:22.195Z,0.70
2018-03-20T13:49:48.395Z,0.50
2018-03-20T13:52:14.563Z,0.47
2018-03-20T13:54:40.708Z,0.90
2018-03-20T13:57:06.875Z,0.83
2018-03-20T13:59:33.051Z,0.97
2018-03-20T14:01:59.203Z,0.30
2018-03-20T14:04:26.140Z,1.10
2018-03-20T14:06:52.284Z,1.23
2018-03-20T14:09:18.479Z,1.77
2018-03-20T14:11:44.615Z,1.80
2018-03-20T14:14:10.764Z,0.40
2018-03-20T14:16:36.966Z,1.43
2018-03-20T14:19:03.090Z,1.90
2018-03-20T14:21:29.252Z,0.60
2018-03-20T14:23:55.414Z,1.13
2018-03-20T14:26:21.555Z,0.67
2018-03-20T14:28:47.769Z,0.70
2018-03-20T14:31:13.986Z,1.20
2018-03-20T14:33:40.119Z,2.93
2018-03-20T14:36:06.250Z,2.03
2018-03-20T14:38:32.422Z,2.13
2018-03-20T14:40:59.364Z,1.60
2018-03-20T14:43:25.506Z,2.17
2018-03-20T14:45:52.374Z,0.43
2018-03-20T14:48:18.555Z,2.63
2018-03-20T14:50:44.694Z,1.67
2018-03-20T14:53:10.826Z,1.47
2018-03-20T14:55:37.014Z,1.27
2018-03-20T14:58:03.206Z,0.97
2018-03-20T15:00:29.356Z,1.33
2018-03-20T15:02:56.275Z,2.43
2018-03-20T15:05:22.411Z,1.97
2018-03-20T15:07:48.850Z,2.10
2018-03-20T15:10:15.454Z,0.57
2018-03-20T15:12:42.099Z,1.10
2018-03-20T15:15:08.577Z,2.00
2018-03-20T15:17:35.844Z,1.17
2018-03-20T15:20:02.422Z,1.63
2018-03-20T15:22:28.862Z,0.77
2018-03-20T15:24:55.376Z,0.70
2018-03-20T15:27:22.059Z,2.97
2018-03-20T15:29:48.677Z,2.17
2018-03-20T15:32:15.131Z,1.33
2018-03-20T15:34:41.604Z,1.07
2018-03-20T15:37:08.314Z,1.47
2018-03-20T15:39:34.941Z,1.57
2018-03-20T15:42:01.379Z,1.60
2018-03-20T15:44:27.971Z,1.40
2018-03-20T15:46:55.062Z,2.40
2018-03-20T15:49:21.811Z,2.90
2018-03-20T15:51:49.759Z,1.23
2018-03-20T15:54:16.142Z,0.77
2018-03-20T15:56:42.689Z,0.80
2018-03-20T15:59:09.108Z,0.93
2018-03-20T16:01:35.675Z,4.00
2018-03-20T16:04:02.165Z,1.50
2018-03-20T16:06:29.307Z,3.13
2018-03-20T16:08:56.907Z,2.80
2018-03-20T16:11:23.473Z,2.27
2018-03-20T16:13:50.067Z,0.90
2018-03-20T16:16:16.557Z,2.33
2018-03-20T16:18:43.015Z,0.50
2018-03-20T16:21:09.714Z,2.87
2018-03-20T16:23:36.276Z,0.50
2018-03-20T16:26:02.665Z,1.93
2018-03-20T16:28:29.259Z,1.30
2018-03-20T16:30:55.800Z,1.23
2018-03-20T16:33:22.268Z,0.73
2018-03-20T16:35:48.813Z,1.20
2018-03-20T16:38:15.527Z,0.87
2018-03-20T16:40:41.955Z,2.10
2018-03-20T16:43:08.274Z,1.40
2018-03-20T16:45:34.703Z,1.20
2018-03-20T16:48:01.336Z,1.10
2018-03-20T16:50:27.717Z,2.33
2018-03-20T16:52:54.052Z,1.80
2018-03-20T16:55:21.195Z,1.70
2018-03-20T16:57:47.417Z,4.30
2018-03-20T17:00:13.750Z,1.83
2018-03-20T17:02:40.087Z,0.93
2018-03-20T17:05:06.424Z,2.70
2018-03-20T17:07:32.655Z,0.73
2018-03-20T17:09:58.912Z,0.83
2018-03-20T17:12:25.210Z,1.40
2018-03-20T17:14:52.329Z,2.77
2018-03-20T17:17:19.347Z,2.67
2018-03-20T17:19:45.585Z,1.57
2018-03-20T17:22:11.790Z,1.03
2018-03-20T17:24:38.072Z,0.63
2018-03-20T17:27:04.289Z,0.90
2018-03-20T17:29:30.524Z,1.77
2018-03-20T17:31:56.747Z,0.97
2018-03-20T17:34:22.966Z,0.73
2018-03-20T17:36:49.214Z,1.00
2018-03-20T17:39:15.411Z,2.17
2018-03-20T17:41:42.320Z,2.07
2018-03-20T17:44:08.703Z,1.03
2018-03-20T17:46:35.631Z,2.03
2018-03-20T17:49:01.812Z,1.20
2018-03-20T17:51:28.004Z,1.27
2018-03-20T17:53:54.947Z,0.70
2018-03-20T17:56:21.914Z,2.03
2018-03-20T17:58:48.922Z,0.87
2018-03-20T18:01:15.106Z,1.33
2018-03-20T18:03:41.374Z,2.57
2018-03-20T18:06:07.600Z,1.30
2018-03-20T18:08:33.751Z,1.47
2018-03-20T18:10:59.994Z,1.17
2018-03-20T18:13:26.176Z,2.07
2018-03-20T18:15:52.332Z,1.23
2018-03-20T18:18:18.528Z,2.07
2018-03-20T18:20:45.451Z,0.87
2018-03-20T18:23:11.674Z,1.47
2018-03-20T18:25:37.848Z,1.03
2018-03-20T18:28:04.172Z,0.63
2018-03-20T18:30:30.315Z,3.93
2018-03-20T18:32:57.291Z,1.17
2018-03-20T18:35:23.575Z,1.67
2018-03-20T18:37:49.727Z,0.97
2018-03-20T18:40:16.611Z,2.87
2018-03-20T18:42:42.807Z,5.13
2018-03-20T18:45:09.767Z,0.83
2018-03-20T18:47:36.784Z,1.77
2018-03-20T18:50:03.064Z,0.80
2018-03-20T18:52:29.269Z,2.80
2018-03-20T18:54:55.439Z,2.60
2018-03-20T18:57:21.643Z,2.93
2018-03-20T18:59:48.552Z,1.43
2018-03-20T19:02:14.757Z,5.90
2018-03-20T19:04:41.030Z,1.07
2018-03-20T19:07:07.931Z,1.47
2018-03-20T19:09:34.167Z,4.47
2018-03-20T19:12:00.351Z,3.30
2018-03-20T19:14:26.498Z,3.70
2018-03-20T19:16:53.481Z,4.60
2018-03-20T19:19:19.744Z,2.57
2018-03-20T19:21:45.979Z,4.37
2018-03-20T19:24:12.215Z,2.27
2018-03-20T19:26:38.510Z,1.47
2018-03-20T19:29:04.866Z,2.63
2018-03-20T19:31:31.043Z,3.33
2018-03-20T19:33:57.338Z,1.63
2018-03-20T19:36:23.534Z,1.70
2018-03-20T19:38:50.462Z,1.97
2018-03-20T19:41:16.724Z,2.83
2018-03-20T19:43:42.954Z,1.63
2018-03-20T19:46:09.899Z,0.97
2018-03-20T19:48:36.927Z,1.67
2018-03-20T19:51:03.173Z,0.77
2018-03-20T19:53:30.172Z,1.47
2018-03-20T19:55:56.507Z,1.40
2018-03-20T19:58:22.686Z,2.53
2018-03-20T20:00:48.924Z,0.90
2018-03-20T20:03:15.982Z,1.40
2018-03-20T20:05:43.111Z,1.33
2018-03-20T20:08:09.423Z,3.73
2018-03-20T20:10:35.836Z,1.30
2018-03-20T20:13:02.199Z,4.07
2018-03-20T20:15:28.515Z,2.97
2018-03-20T20:17:54.850Z,2.53
2018-03-20T20:20:21.046Z,3.23
2018-03-20T20:22:47.339Z,3.03
2018-03-20T20:25:13.673Z,1.30
2018-03-20T20:27:46.732Z,2.20
2018-03-20T20:30:13.158Z,3.43
2018-03-20T20:32:39.412Z,3.60
2018-03-20T20:35:05.673Z,3.92
2018-03-20T20:37:31.950Z,1.03
2018-03-20T20:39:58.872Z,3.13
2018-03-20T20:42:25.028Z,2.33
2018-03-20T20:44:52.007Z,2.40
2018-03-20T20:47:18.244Z,2.60
2018-03-20T20:49:44.452Z,2.97
2018-03-20T20:52:11.402Z,1.60
2018-03-20T20:54:38.358Z,2.25
2018-03-20T20:57:05.333Z,2.35
2018-03-20T20:59:31.519Z,3.33
2018-03-20T21:01:58.552Z,2.15
2018-03-20T21:04:24.750Z,4.12
2018-03-20T21:06:50.957Z,1.90
2018-03-20T21:09:17.959Z,1.58
2018-03-20T21:11:44.123Z,2.25
2018-03-20T21:14:11.075Z,1.83
2018-03-20T21:16:38.016Z,2.20
2018-03-20T21:19:04.273Z,2.37
2018-03-20T21:21:31.299Z,1.60
2018-03-20T21:23:57.612Z,2.58
2018-03-20T21:26:23.895Z,3.08
2018-03-20T21:28:50.099Z,2.67
2018-03-20T21:31:16.354Z,1.67
2018-03-20T21:33:43.539Z,1.17
2018-03-20T21:36:10.208Z,3.35
2018-03-20T21:38:36.979Z,1.77
2018-03-20T21:41:03.995Z,3.90
2018-03-20T21:43:31.868Z,7.22
2018-03-20T21:45:59.111Z,3.53
2018-03-20T21:48:26.288Z,1.47
2018-03-20T21:50:53.518Z,1.97
2018-03-20T21:53:22.132Z,1.73
2018-03-20T21:55:48.775Z,2.80
2018-03-20T21:58:20.624Z,3.55
2018-03-20T22:00:50.555Z,1.77
2018-03-20T22:03:30.070Z,1.67
2018-03-20T22:05:57.963Z,1.70
2018-03-20T22:08:30.250Z,2.67
2018-03-20T22:13:56.266Z,2.62
2018-03-20T22:19:05.722Z,1.27
2018-03-20T22:21:33.056Z,3.73
2018-03-20T22:24:00.440Z,1.33
2018-03-20T22:26:28.208Z,2.13
2018-03-20T22:28:55.388Z,2.47
2018-03-20T22:31:24.738Z,3.63
2018-03-20T22:33:58.465Z,2.17
2018-03-20T22:36:50.417Z,2.20
2018-03-20T22:42:08.441Z,3.53
2018-03-20T22:44:36.622Z,2.67
2018-03-20T22:47:04.389Z,3.53
2018-03-20T22:49:33.892Z,2.80
2018-03-20T22:52:01.973Z,1.70
2018-03-20T22:54:29.345Z,1.58
2018-03-20T23:00:00.968Z,1.60
2018-03-20T23:02:30.195Z,1.50
2018-03-20T23:05:04.580Z,1.50
2018-03-20T23:10:39.346Z,3.93
2018-03-20T23:13:09.059Z,1.93
2018-03-20T23:15:36.891Z,3.20
2018-03-20T23:18:04.667Z,1.53
2018-03-20T23:23:17.018Z,4.40
2018-03-20T23:25:46.465Z,1.97
2018-03-20T23:28:16.773Z,3.50
2018-03-20T23:30:44.092Z,2.73
2018-03-20T23:33:11.469Z,2.53
2018-03-20T23:35:39.776Z,2.47
2018-03-20T23:38:08.440Z,2.50
2018-03-20T23:40:42.761Z,2.50
2018-03-20T23:43:17.178Z,3.70
2018-03-20T23:45:58.136Z,2.90
2018-03-20T23:48:32.159Z,1.80
2018-03-20T23:51:00.116Z,1.02
2018-03-20T23:53:28.106Z,1.20
2018-03-20T23:56:02.226Z,2.37
2018-03-20T23:58:29.655Z,2.97
